Hauptseite
METAR-TAF:

METAR-TAF

Flughäfen :

Flughafen Gibraltar

Gibraltar, Gibraltar

Breite: 36-09N, Länge: 005-21W, Höhe: 5 m

Beobachtung

Neuester Wetterbericht von vor 1 Stunde und 11 Minuten, um 19:50 UTC
Wind 8 kt aus Ost
Temperatur 17°C
Luftfeuchtigkeit 72%
Luftdruck 1012 hPa
Sichtweite 10 km oder mehr

METAR: LXGB 201950Z AUTO 10008KT 9999 // FEW023/// BKN030/// 17/12 Q1012

Zeit: 23:01 (21:01 UTC)

Prognose

Neuester Wetterbericht von vor 4 Stunden und 19 Minuten, um 16:42 UTC
Gültige Prognose vom 20 um 18 UTC bis 20 um 22 UTC
Wind 6 kt aus Süd/Südost
Sichtweite 10 km oder mehr
Leicht bewölkt in der Höhe von 3500 ft
Aufgelockert bewölkt in der Höhe von 5000 ft

TAF: LXGB 201642Z 2018/2022 15006KT 9999 FEW035 SCT050

Wetterbeobachtungen und Prognosen von mehr als 4000 Flughäfen (METAR und TAF Bericht).

Die verfügbaren Stationen werden durch gelbe und rote Markierungen auf der Karte dargestellt.

Führen Sie die Maus auf sie, um den Namen der Station zu sehen.

Darauf klicken, um die Beobachtung von Wetterbeobachtungen und Prognosen zu sehen.

Um die Karte zu ändern : klicken Sie auf den grünen Tasten mit einem schwarzen Kreuz Zum Vergrößern, auf den grünen Button mit einem Gedankenstrich zu verkleinern, oder auf die grünen Pfeile für benachbarte Karten.


METAR-TAF: